Time;durP1;ratioP1;P1;durP2;ratioP2;P2;SDS_P1;SDS_P2;PMS_P1;PMS_P2;Temp;Humidity;BMP_temperature;BMP_pressure;BME280_temperature;BME280_humidity;BME280_pressure;Samples;Min_cycle;Max_cycle;Signal;HPM_P1;HPM_P2
2022/07/01 00:00:35;;;;;;;9.52;5.43;;;;;;;;;;5010728;28;20600;-65
2022/07/01 00:03:00;;;;;;;9.90;4.60;;;;;;;;;;5011329;28;20030;-65
2022/07/01 00:05:25;;;;;;;10.83;6.07;;;;;;;;;;5012308;28;20359;-65
2022/07/01 00:07:50;;;;;;;9.63;5.60;;;;;;;;;;5009049;28;20276;-65
2022/07/01 00:10:15;;;;;;;11.93;6.23;;;;;;;;;;5011187;28;20288;-66
2022/07/01 00:12:40;;;;;;;10.57;5.80;;;;;;;;;;5007191;28;20022;-65
2022/07/01 00:15:06;;;;;;;10.50;5.97;;;;;;;;;;5012020;28;20061;-65
2022/07/01 00:17:31;;;;;;;12.43;6.38;;;;;;;;;;5009481;28;20010;-66
2022/07/01 00:19:56;;;;;;;9.77;5.78;;;;;;;;;;5004962;28;20026;-66
2022/07/01 00:22:22;;;;;;;12.07;6.80;;;;;;;;;;5010937;28;20021;-65
2022/07/01 00:24:48;;;;;;;15.37;7.10;;;;;;;;;;5010976;28;20018;-65
2022/07/01 00:27:13;;;;;;;11.13;6.68;;;;;;;;;;5010457;28;20329;-65
2022/07/01 00:29:38;;;;;;;16.30;6.82;;;;;;;;;;5010558;28;20101;-66
2022/07/01 00:32:04;;;;;;;10.27;6.23;;;;;;;;;;5010000;28;20017;-66
2022/07/01 00:34:29;;;;;;;12.63;6.78;;;;;;;;;;5010894;28;20065;-65
2022/07/01 00:36:54;;;;;;;12.85;6.28;;;;;;;;;;5011147;28;20025;-66
2022/07/01 00:39:19;;;;;;;19.70;5.93;;;;;;;;;;5010609;28;20088;-66
2022/07/01 00:41:44;;;;;;;10.93;5.37;;;;;;;;;;5008703;28;20097;-65
2022/07/01 00:44:19;;;;;;;14.93;5.80;;;;;;;;;;5011059;28;20277;-65
2022/07/01 00:46:44;;;;;;;11.65;5.97;;;;;;;;;;5008438;28;20265;-66
2022/07/01 00:49:10;;;;;;;14.68;6.00;;;;;;;;;;5008845;28;20399;-66
2022/07/01 00:51:35;;;;;;;13.55;6.63;;;;;;;;;;5009589;28;20034;-65
2022/07/01 00:54:01;;;;;;;12.23;5.45;;;;;;;;;;5004028;28;20030;-65
2022/07/01 00:56:26;;;;;;;16.60;6.03;;;;;;;;;;5008186;28;20029;-65
2022/07/01 00:58:51;;;;;;;11.93;5.82;;;;;;;;;;5010527;28;20099;-66
2022/07/01 01:01:17;;;;;;;12.10;6.05;;;;;;;;;;5009755;28;20105;-65
2022/07/01 01:03:42;;;;;;;12.70;6.93;;;;;;;;;;5009494;28;20025;-66
2022/07/01 01:06:08;;;;;;;17.40;8.50;;;;;;;;;;5016986;23;20046;-65
2022/07/01 01:08:33;;;;;;;21.00;8.45;;;;;;;;;;5008295;28;20476;-65
2022/07/01 01:10:59;;;;;;;20.47;8.60;;;;;;;;;;5007585;28;20465;-65
2022/07/01 01:13:24;;;;;;;20.55;8.93;;;;;;;;;;5011478;28;20292;-65
2022/07/01 01:15:49;;;;;;;18.40;9.23;;;;;;;;;;5005213;28;20033;-65
2022/07/01 01:18:14;;;;;;;18.70;8.23;;;;;;;;;;4990687;28;20311;-65
2022/07/01 01:20:39;;;;;;;17.98;8.50;;;;;;;;;;4987785;28;20281;-65
2022/07/01 01:23:05;;;;;;;20.13;9.80;;;;;;;;;;4990748;28;20062;-65
2022/07/01 01:25:33;;;;;;;16.58;7.72;;;;;;;;;;4988745;28;20605;-65
2022/07/01 01:27:59;;;;;;;19.05;9.27;;;;;;;;;;4990967;28;20049;-65
2022/07/01 01:30:24;;;;;;;16.90;7.57;;;;;;;;;;4988155;28;20046;-65
2022/07/01 01:32:50;;;;;;;18.30;7.72;;;;;;;;;;4990499;28;20026;-65
2022/07/01 01:35:16;;;;;;;21.63;8.05;;;;;;;;;;4989260;28;20036;-65
2022/07/01 01:37:41;;;;;;;22.10;9.57;;;;;;;;;;4990825;28;20109;-65
2022/07/01 01:40:06;;;;;;;24.13;10.10;;;;;;;;;;4988843;28;20671;-65
2022/07/01 01:42:32;;;;;;;22.80;9.20;;;;;;;;;;4987624;28;20024;-65
2022/07/01 01:44:57;;;;;;;23.67;10.90;;;;;;;;;;4988550;28;20445;-65
2022/07/01 01:47:22;;;;;;;22.45;9.85;;;;;;;;;;4990292;28;20029;-64
2022/07/01 01:49:47;;;;;;;17.60;9.13;;;;;;;;;;4989926;28;20560;-65
2022/07/01 01:52:12;;;;;;;17.63;9.13;;;;;;;;;;4990482;28;20258;-65
2022/07/01 01:54:38;;;;;;;13.40;6.60;;;;;;;;;;4988167;28;20766;-66
2022/07/01 01:57:04;;;;;;;20.27;8.37;;;;;;;;;;4990495;28;20285;-65
2022/07/01 01:59:29;;;;;;;15.38;8.02;;;;;;;;;;4988631;28;20380;-64
2022/07/01 02:01:55;;;;;;;16.17;7.93;;;;;;;;;;4990310;28;20026;-65
2022/07/01 02:04:20;;;;;;;15.83;7.43;;;;;;;;;;4988511;28;20054;-65
2022/07/01 02:06:46;;;;;;;15.27;7.00;;;;;;;;;;4990032;28;20637;-65
2022/07/01 02:09:11;;;;;;;15.10;8.00;;;;;;;;;;4988433;28;20027;-65
2022/07/01 02:11:36;;;;;;;13.05;6.97;;;;;;;;;;4989223;28;20022;-65
2022/07/01 02:14:01;;;;;;;13.48;7.68;;;;;;;;;;4985807;28;20015;-64
2022/07/01 02:16:27;;;;;;;15.93;7.97;;;;;;;;;;4990774;28;20045;-65
2022/07/01 02:18:52;;;;;;;14.00;7.68;;;;;;;;;;4989369;28;20362;-65
2022/07/01 02:21:17;;;;;;;15.50;7.90;;;;;;;;;;4993348;28;20028;-65
2022/07/01 02:23:42;;;;;;;14.63;7.70;;;;;;;;;;4991811;28;20026;-64
2022/07/01 02:26:07;;;;;;;14.40;8.20;;;;;;;;;;4994241;28;20340;-65
2022/07/01 02:28:33;;;;;;;16.80;7.00;;;;;;;;;;4993183;28;20729;-65
2022/07/01 02:30:58;;;;;;;17.98;6.72;;;;;;;;;;4993935;28;20257;-65
2022/07/01 02:33:23;;;;;;;15.48;7.10;;;;;;;;;;4991748;28;20026;-65
2022/07/01 02:35:49;;;;;;;17.02;6.90;;;;;;;;;;4994339;28;20401;-65
2022/07/01 02:38:14;;;;;;;19.23;7.38;;;;;;;;;;4991689;28;20548;-64
2022/07/01 02:40:41;;;;;;;12.40;6.87;;;;;;;;;;4993070;28;20037;-64
2022/07/01 02:43:06;;;;;;;19.20;6.80;;;;;;;;;;4992580;28;20805;-65
2022/07/01 02:45:32;;;;;;;18.83;7.05;;;;;;;;;;4992539;28;20018;-65
2022/07/01 02:47:57;;;;;;;11.65;5.78;;;;;;;;;;4993208;28;20026;-65
2022/07/01 02:50:22;;;;;;;15.90;5.80;;;;;;;;;;4993314;28;20645;-65
2022/07/01 02:52:47;;;;;;;14.95;6.88;;;;;;;;;;4992663;28;20781;-65
2022/07/01 02:55:13;;;;;;;16.35;6.68;;;;;;;;;;4991138;28;20022;-65
2022/07/01 02:57:39;;;;;;;15.18;6.80;;;;;;;;;;4991026;28;20641;-65
2022/07/01 03:00:06;;;;;;;12.25;4.95;;;;;;;;;;4994185;28;20023;-65
2022/07/01 03:02:31;;;;;;;17.02;4.97;;;;;;;;;;4992306;28;20031;-65
2022/07/01 03:04:56;;;;;;;21.95;6.22;;;;;;;;;;4993648;28;20511;-65
2022/07/01 03:07:21;;;;;;;13.55;5.80;;;;;;;;;;4990996;28;20029;-64
2022/07/01 03:09:47;;;;;;;8.37;4.57;;;;;;;;;;4993272;28;20049;-65
2022/07/01 03:12:24;;;;;;;16.35;5.93;;;;;;;;;;4991457;28;20360;-65
2022/07/01 03:15:00;;;;;;;10.38;4.63;;;;;;;;;;4993324;28;20026;-65
2022/07/01 03:17:25;;;;;;;11.73;4.85;;;;;;;;;;4991807;28;20430;-65
2022/07/01 03:19:54;;;;;;;9.35;4.65;;;;;;;;;;4993076;28;20073;-65
2022/07/01 03:22:23;;;;;;;8.65;4.47;;;;;;;;;;4990927;28;20029;-65
2022/07/01 03:24:48;;;;;;;6.18;3.67;;;;;;;;;;4993042;28;20026;-65
2022/07/01 03:27:14;;;;;;;8.65;4.10;;;;;;;;;;4992893;28;20029;-64
2022/07/01 03:29:39;;;;;;;8.55;3.60;;;;;;;;;;4993243;28;20085;-65
2022/07/01 03:32:05;;;;;;;13.98;4.32;;;;;;;;;;4990879;28;20101;-65
2022/07/01 03:34:30;;;;;;;10.98;3.83;;;;;;;;;;4992163;28;20130;-65
2022/07/01 03:36:55;;;;;;;10.23;4.05;;;;;;;;;;4990266;28;20018;-65
2022/07/01 03:39:21;;;;;;;6.93;3.50;;;;;;;;;;4992439;28;20018;-65
2022/07/01 03:41:46;;;;;;;7.80;4.05;;;;;;;;;;4991490;28;20273;-65
2022/07/01 03:44:11;;;;;;;8.63;3.60;;;;;;;;;;4992750;28;20398;-65
2022/07/01 03:46:37;;;;;;;10.43;3.63;;;;;;;;;;4991693;28;20045;-65
2022/07/01 03:49:03;;;;;;;5.22;3.72;;;;;;;;;;4992059;28;20352;-65
2022/07/01 03:51:29;;;;;;;10.88;4.57;;;;;;;;;;4989980;28;20029;-65
2022/07/01 03:56:38;;;;;;;14.23;4.10;;;;;;;;;;4989561;28;20335;-64
2022/07/01 03:59:03;;;;;;;6.65;3.42;;;;;;;;;;4992521;28;20014;-65
2022/07/01 04:01:28;;;;;;;4.72;3.03;;;;;;;;;;4991313;28;20675;-65
2022/07/01 04:03:53;;;;;;;14.20;3.70;;;;;;;;;;4989326;28;20034;-65
2022/07/01 04:06:19;;;;;;;8.53;3.00;;;;;;;;;;4991328;28;20327;-64
2022/07/01 04:08:45;;;;;;;8.85;3.15;;;;;;;;;;4991627;28;20277;-68
2022/07/01 04:11:10;;;;;;;8.65;2.35;;;;;;;;;;4992798;28;20011;-65
2022/07/01 04:13:39;;;;;;;8.55;2.92;;;;;;;;;;4990470;28;20037;-65
2022/07/01 04:16:04;;;;;;;7.55;2.67;;;;;;;;;;4992965;28;20073;-65
2022/07/01 04:18:29;;;;;;;5.70;2.50;;;;;;;;;;4988542;28;20030;-65
2022/07/01 04:23:38;;;;;;;9.88;2.88;;;;;;;;;;4988969;28;20025;-65
2022/07/01 04:26:04;;;;;;;5.70;2.47;;;;;;;;;;4992753;28;20386;-65
2022/07/01 04:28:29;;;;;;;7.82;3.28;;;;;;;;;;4990253;28;20264;-65
2022/07/01 04:30:54;;;;;;;8.50;2.80;;;;;;;;;;4992511;28;20029;-65
2022/07/01 04:33:19;;;;;;;6.87;2.60;;;;;;;;;;4988037;28;20297;-65
2022/07/01 04:35:44;;;;;;;6.50;2.50;;;;;;;;;;4991470;28;20277;-65
2022/07/01 04:38:09;;;;;;;10.90;2.57;;;;;;;;;;4989529;28;20327;-65
2022/07/01 04:40:35;;;;;;;4.03;2.30;;;;;;;;;;4991472;28;20369;-65
2022/07/01 04:43:00;;;;;;;4.55;2.05;;;;;;;;;;4989204;28;20269;-64
2022/07/01 04:45:25;;;;;;;6.57;1.87;;;;;;;;;;4990550;28;20022;-64
2022/07/01 04:47:50;;;;;;;5.90;1.80;;;;;;;;;;4988419;28;20357;-65
2022/07/01 04:50:15;;;;;;;6.63;2.40;;;;;;;;;;4990153;28;20274;-65
2022/07/01 04:52:40;;;;;;;11.60;2.10;;;;;;;;;;4990956;28;20014;-65
2022/07/01 04:55:06;;;;;;;4.63;1.97;;;;;;;;;;4991295;28;20487;-65
2022/07/01 04:57:31;;;;;;;10.38;1.88;;;;;;;;;;4990400;28;20281;-66
2022/07/01 04:59:56;;;;;;;4.95;1.80;;;;;;;;;;4991217;28;20034;-66
2022/07/01 05:02:21;;;;;;;4.80;1.73;;;;;;;;;;4987688;28;20033;-66
2022/07/01 05:04:47;;;;;;;4.17;1.73;;;;;;;;;;4990905;28;20296;-66
2022/07/01 05:07:27;;;;;;;6.17;2.10;;;;;;;;;;4989826;28;20296;-66
2022/07/01 05:09:53;;;;;;;4.80;1.60;;;;;;;;;;4991756;28;20246;-66
2022/07/01 05:12:18;;;;;;;4.65;1.92;;;;;;;;;;4989655;28;20019;-66
2022/07/01 05:14:43;;;;;;;8.67;2.30;;;;;;;;;;4989973;28;20058;-66
2022/07/01 05:17:08;;;;;;;7.17;1.93;;;;;;;;;;4988426;28;20285;-65
2022/07/01 05:22:17;;;;;;;4.93;1.88;;;;;;;;;;4989711;28;20292;-67
2022/07/01 05:24:43;;;;;;;9.10;2.40;;;;;;;;;;4990041;28;20030;-66
2022/07/01 05:27:08;;;;;;;7.40;1.80;;;;;;;;;;4990040;28;20432;-66
2022/07/01 05:29:33;;;;;;;9.90;2.80;;;;;;;;;;4990337;28;20285;-66
2022/07/01 05:31:58;;;;;;;6.03;2.17;;;;;;;;;;4984138;28;20018;-65
2022/07/01 05:34:23;;;;;;;7.25;1.88;;;;;;;;;;4987491;28;20108;-66
2022/07/01 05:36:49;;;;;;;7.82;2.25;;;;;;;;;;4986666;28;20538;-66
2022/07/01 05:39:14;;;;;;;7.50;3.53;;;;;;;;;;4988481;28;20084;-66
2022/07/01 05:41:39;;;;;;;5.20;1.75;;;;;;;;;;4987566;28;20040;-66
2022/07/01 05:44:04;;;;;;;12.13;2.97;;;;;;;;;;4986119;28;20025;-65
2022/07/01 05:46:30;;;;;;;12.85;3.90;;;;;;;;;;4985644;28;20558;-66
2022/07/01 05:48:55;;;;;;;14.40;3.87;;;;;;;;;;4987643;28;20468;-66
2022/07/01 05:51:20;;;;;;;6.13;2.90;;;;;;;;;;4987138;28;20288;-66
2022/07/01 05:53:47;;;;;;;9.27;2.67;;;;;;;;;;4984268;28;20380;-66
2022/07/01 05:56:12;;;;;;;7.20;2.22;;;;;;;;;;4983682;28;20037;-66
2022/07/01 05:58:37;;;;;;;9.57;1.92;;;;;;;;;;4985886;28;20018;-66
2022/07/01 06:01:03;;;;;;;7.57;2.30;;;;;;;;;;4986572;28;20033;-66
2022/07/01 06:03:28;;;;;;;10.48;2.13;;;;;;;;;;4985822;28;20872;-66
2022/07/01 06:05:54;;;;;;;5.13;2.67;;;;;;;;;;4986804;28;20042;-66
2022/07/01 06:08:20;;;;;;;10.27;2.80;;;;;;;;;;4986868;28;20105;-66
2022/07/01 06:10:45;;;;;;;2.77;1.13;;;;;;;;;;4987619;28;20373;-65
2022/07/01 06:13:10;;;;;;;4.20;2.17;;;;;;;;;;4990128;28;20339;-66
2022/07/01 06:15:36;;;;;;;11.13;2.80;;;;;;;;;;4987693;28;20273;-66
2022/07/01 06:18:01;;;;;;;13.35;3.03;;;;;;;;;;4989420;28;20455;-66
2022/07/01 06:20:26;;;;;;;13.80;3.77;;;;;;;;;;4989874;28;20739;-65
2022/07/01 06:22:51;;;;;;;4.70;2.65;;;;;;;;;;4989181;28;20320;-65
2022/07/01 06:25:17;;;;;;;3.97;2.20;;;;;;;;;;4988545;28;20088;-66
2022/07/01 06:27:42;;;;;;;10.25;1.98;;;;;;;;;;4987251;28;20262;-65
2022/07/01 06:30:09;;;;;;;9.20;2.97;;;;;;;;;;4989605;28;20041;-66
2022/07/01 06:32:34;;;;;;;7.05;2.42;;;;;;;;;;4987924;28;20021;-66
2022/07/01 06:34:59;;;;;;;13.07;2.37;;;;;;;;;;4988829;28;20022;-66
2022/07/01 06:37:25;;;;;;;10.30;2.42;;;;;;;;;;4986917;28;20297;-66
2022/07/01 06:39:50;;;;;;;10.65;2.70;;;;;;;;;;4987430;28;20031;-66
2022/07/01 06:42:15;;;;;;;13.15;4.03;;;;;;;;;;4989636;28;20466;-66
2022/07/01 06:44:41;;;;;;;6.30;2.67;;;;;;;;;;4988728;28;20018;-66
2022/07/01 06:47:06;;;;;;;16.48;3.97;;;;;;;;;;4986084;28;20029;-65
2022/07/01 06:49:31;;;;;;;13.85;4.40;;;;;;;;;;4987315;28;20018;-66
2022/07/01 06:51:57;;;;;;;6.87;2.30;;;;;;;;;;4989950;28;20522;-65
2022/07/01 06:54:22;;;;;;;5.50;1.87;;;;;;;;;;4985777;28;20319;-66
2022/07/01 06:56:47;;;;;;;9.60;2.05;;;;;;;;;;4988703;28;20372;-66
2022/07/01 06:59:14;;;;;;;7.57;2.67;;;;;;;;;;4983118;28;20150;-66
2022/07/01 07:01:40;;;;;;;8.13;2.17;;;;;;;;;;4986918;28;20738;-66
2022/07/01 07:04:05;;;;;;;7.70;1.92;;;;;;;;;;4984396;28;20053;-66
2022/07/01 07:06:30;;;;;;;9.20;2.43;;;;;;;;;;4990772;28;20407;-66
2022/07/01 07:08:55;;;;;;;6.63;1.97;;;;;;;;;;4990485;28;20270;-66
2022/07/01 07:11:20;;;;;;;4.53;2.35;;;;;;;;;;4993187;28;20273;-66
2022/07/01 07:13:46;;;;;;;6.65;2.13;;;;;;;;;;4989361;28;20129;-66
2022/07/01 07:16:11;;;;;;;10.17;2.30;;;;;;;;;;4991762;28;20033;-66
2022/07/01 07:18:36;;;;;;;5.53;2.47;;;;;;;;;;4991714;28;20359;-66
2022/07/01 07:21:03;;;;;;;7.17;2.00;;;;;;;;;;4993673;28;20023;-66
2022/07/01 07:23:28;;;;;;;7.65;2.78;;;;;;;;;;4991383;28;20360;-66
2022/07/01 07:25:53;;;;;;;15.30;3.70;;;;;;;;;;4993540;28;20678;-66
2022/07/01 07:28:18;;;;;;;12.73;3.33;;;;;;;;;;4992894;28;20011;-66
2022/07/01 07:30:43;;;;;;;12.00;3.47;;;;;;;;;;4992741;28;20117;-66
2022/07/01 07:33:09;;;;;;;9.93;4.10;;;;;;;;;;4997386;28;20345;-66
2022/07/01 07:35:34;;;;;;;12.43;4.00;;;;;;;;;;4990517;28;20674;-66
2022/07/01 07:37:59;;;;;;;7.82;3.72;;;;;;;;;;4989495;28;20312;-66
2022/07/01 07:40:25;;;;;;;8.60;3.97;;;;;;;;;;4993039;28;20010;-66
2022/07/01 07:42:50;;;;;;;7.80;3.25;;;;;;;;;;4988911;28;20765;-66
2022/07/01 07:45:16;;;;;;;13.00;3.00;;;;;;;;;;4993084;28;20018;-66
2022/07/01 07:47:42;;;;;;;8.57;2.97;;;;;;;;;;4993592;28;20379;-66
2022/07/01 07:50:08;;;;;;;8.00;3.80;;;;;;;;;;4993201;28;20155;-66
2022/07/01 07:52:33;;;;;;;6.55;3.67;;;;;;;;;;4993108;28;20047;-66
2022/07/01 07:54:59;;;;;;;6.00;3.37;;;;;;;;;;4991055;28;20023;-66
2022/07/01 07:57:24;;;;;;;6.80;3.33;;;;;;;;;;4992892;28;20266;-66
2022/07/01 07:59:49;;;;;;;15.95;3.17;;;;;;;;;;4992154;28;20269;-66
2022/07/01 08:02:14;;;;;;;6.33;3.33;;;;;;;;;;4992846;28;20057;-66
2022/07/01 08:04:39;;;;;;;11.65;2.90;;;;;;;;;;4993096;28;20283;-66
2022/07/01 08:07:05;;;;;;;10.37;3.33;;;;;;;;;;4992912;28;20052;-66
2022/07/01 08:09:34;;;;;;;6.70;3.85;;;;;;;;;;4990619;28;20761;-66
2022/07/01 08:11:59;;;;;;;8.43;2.72;;;;;;;;;;4991916;28;20015;-67
2022/07/01 08:14:24;;;;;;;4.10;2.40;;;;;;;;;;4992789;28;20471;-66
2022/07/01 08:16:49;;;;;;;5.50;2.23;;;;;;;;;;4991981;28;20278;-67
2022/07/01 08:19:14;;;;;;;8.30;2.80;;;;;;;;;;4990083;28;20790;-66
2022/07/01 08:21:40;;;;;;;3.83;2.20;;;;;;;;;;4990178;28;20281;-66
2022/07/01 08:24:05;;;;;;;5.93;2.72;;;;;;;;;;4990592;28;20311;-66
2022/07/01 08:26:30;;;;;;;8.23;2.10;;;;;;;;;;4992123;28;20096;-66
2022/07/01 08:28:56;;;;;;;8.10;2.93;;;;;;;;;;4989455;28;20027;-66
2022/07/01 08:31:21;;;;;;;8.55;3.05;;;;;;;;;;4990335;28;20014;-66
2022/07/01 08:33:46;;;;;;;9.10;2.55;;;;;;;;;;4991569;28;20482;-66
2022/07/01 08:36:13;;;;;;;6.13;2.42;;;;;;;;;;4991022;28;20414;-66
2022/07/01 08:38:39;;;;;;;6.25;2.95;;;;;;;;;;4991779;28;20125;-66
2022/07/01 08:41:04;;;;;;;5.13;2.72;;;;;;;;;;4991369;28;20018;-66
2022/07/01 08:43:29;;;;;;;10.65;2.50;;;;;;;;;;4990387;28;20110;-66
2022/07/01 08:45:55;;;;;;;6.45;2.78;;;;;;;;;;4991688;28;20064;-66
2022/07/01 08:48:20;;;;;;;6.93;2.85;;;;;;;;;;4988639;28;20529;-66
2022/07/01 08:50:46;;;;;;;13.18;2.10;;;;;;;;;;4990736;28;20065;-66
2022/07/01 08:53:11;;;;;;;8.40;2.90;;;;;;;;;;4990249;28;20029;-66
2022/07/01 08:58:22;;;;;;;8.70;2.63;;;;;;;;;;4989366;28;20479;-66
2022/07/01 09:00:47;;;;;;;7.57;3.30;;;;;;;;;;4989985;28;20018;-66
2022/07/01 09:03:12;;;;;;;5.28;3.20;;;;;;;;;;4989988;28;20489;-67
2022/07/01 09:05:38;;;;;;;10.50;3.20;;;;;;;;;;4991574;28;20105;-66
2022/07/01 09:08:04;;;;;;;10.90;2.60;;;;;;;;;;4991703;28;20681;-66
2022/07/01 09:10:34;;;;;;;9.55;2.45;;;;;;;;;;4991636;28;20065;-66
2022/07/01 09:13:10;;;;;;;11.73;3.03;;;;;;;;;;4989623;28;20022;-66
2022/07/01 09:15:39;;;;;;;9.18;2.78;;;;;;;;;;4987356;28;20433;-66
2022/07/01 09:18:11;;;;;;;5.10;2.20;;;;;;;;;;4988224;28;20040;-66
2022/07/01 09:20:38;;;;;;;8.50;2.28;;;;;;;;;;4989320;28;20022;-66
2022/07/01 09:23:16;;;;;;;10.38;2.38;;;;;;;;;;4986323;28;20017;-66
2022/07/01 09:25:43;;;;;;;6.93;1.80;;;;;;;;;;4986823;28;20064;-67
2022/07/01 09:28:10;;;;;;;12.73;2.92;;;;;;;;;;4989492;28;20030;-66
2022/07/01 09:30:35;;;;;;;12.70;2.67;;;;;;;;;;4987856;28;20113;-66
2022/07/01 09:33:04;;;;;;;10.82;2.58;;;;;;;;;;4989066;28;20093;-66
2022/07/01 09:35:31;;;;;;;8.48;2.40;;;;;;;;;;4988959;28;20018;-66
2022/07/01 09:37:56;;;;;;;3.38;1.98;;;;;;;;;;4992852;28;20011;-66
2022/07/01 09:40:22;;;;;;;11.85;2.88;;;;;;;;;;4987241;28;20082;-66
2022/07/01 09:42:47;;;;;;;10.27;2.70;;;;;;;;;;4986943;28;20031;-66
2022/07/01 09:45:12;;;;;;;13.23;2.33;;;;;;;;;;4982445;28;20329;-66
2022/07/01 09:47:42;;;;;;;5.77;1.50;;;;;;;;;;4988070;28;20274;-66
2022/07/01 09:50:08;;;;;;;6.28;2.25;;;;;;;;;;4990310;28;20381;-66
2022/07/01 09:52:34;;;;;;;5.45;1.92;;;;;;;;;;4989931;28;20089;-66
2022/07/01 09:54:59;;;;;;;10.20;2.10;;;;;;;;;;4989950;28;20033;-66
2022/07/01 09:57:24;;;;;;;3.15;1.17;;;;;;;;;;4986267;28;20076;-66
2022/07/01 09:59:50;;;;;;;5.40;1.70;;;;;;;;;;4989865;28;20027;-66
2022/07/01 10:02:17;;;;;;;3.97;1.40;;;;;;;;;;4989136;28;20081;-66
2022/07/01 10:04:47;;;;;;;9.27;1.55;;;;;;;;;;4990774;28;20010;-66
2022/07/01 10:07:31;;;;;;;3.38;1.48;;;;;;;;;;4990146;28;20030;-66
2022/07/01 10:10:05;;;;;;;5.72;1.63;;;;;;;;;;4987669;28;20023;-66
2022/07/01 10:12:31;;;;;;;4.85;1.65;;;;;;;;;;4988982;28;20069;-66
2022/07/01 10:14:56;;;;;;;4.53;1.77;;;;;;;;;;4990928;28;20391;-66
2022/07/01 10:17:34;;;;;;;7.25;2.70;;;;;;;;;;4989117;28;20446;-66
2022/07/01 10:20:06;;;;;;;2.65;1.50;;;;;;;;;;4990198;28;20022;-66
2022/07/01 10:22:34;;;;;;;6.70;2.10;;;;;;;;;;4989927;28;20027;-66
2022/07/01 10:25:18;;;;;;;8.02;2.28;;;;;;;;;;4989334;28;20049;-66
2022/07/01 10:27:43;;;;;;;5.78;2.47;;;;;;;;;;4989234;28;20390;-66
2022/07/01 10:30:13;;;;;;;14.10;3.50;;;;;;;;;;4991065;28;20030;-66
2022/07/01 10:32:42;;;;;;;5.72;2.47;;;;;;;;;;4989325;28;20274;-66
2022/07/01 10:35:07;;;;;;;7.70;2.25;;;;;;;;;;4989416;28;20034;-66
2022/07/01 10:37:32;;;;;;;8.73;2.90;;;;;;;;;;4989409;28;20378;-66
2022/07/01 10:40:01;;;;;;;7.18;2.00;;;;;;;;;;4989661;28;20061;-66
2022/07/01 10:42:30;;;;;;;9.07;2.22;;;;;;;;;;4993962;28;20026;-66
2022/07/01 10:45:07;;;;;;;6.55;2.67;;;;;;;;;;4990321;28;20041;-66
2022/07/01 10:47:33;;;;;;;8.93;2.67;;;;;;;;;;4993795;28;20015;-66
2022/07/01 10:49:59;;;;;;;6.55;1.85;;;;;;;;;;4993943;28;20018;-66
2022/07/01 10:52:25;;;;;;;7.60;1.80;;;;;;;;;;4990162;28;20075;-66
2022/07/01 10:54:53;;;;;;;10.60;2.17;;;;;;;;;;4993412;28;20393;-66
2022/07/01 10:57:18;;;;;;;6.03;1.80;;;;;;;;;;4993326;28;20169;-66
2022/07/01 10:59:48;;;;;;;15.48;4.05;;;;;;;;;;4994046;28;20096;-66
2022/07/01 11:02:13;;;;;;;;;;;;;;;;;;4993893;28;20026;-66
2022/07/01 11:04:38;;;;;;;4.10;2.05;;;;;;;;;;4993989;28;19913;-66
2022/07/01 11:07:04;;;;;;;4.60;2.47;;;;;;;;;;4993099;28;20483;-67
2022/07/01 11:09:29;;;;;;;5.32;2.25;;;;;;;;;;4993234;28;20274;-67
2022/07/01 11:11:54;;;;;;;3.53;1.85;;;;;;;;;;4991927;28;20053;-66
2022/07/01 11:14:19;;;;;;;4.10;2.20;;;;;;;;;;4994012;28;20030;-66
2022/07/01 11:16:44;;;;;;;5.00;2.20;;;;;;;;;;4990742;28;20045;-66
2022/07/01 11:19:10;;;;;;;5.32;1.92;;;;;;;;;;4992785;28;20282;-66
2022/07/01 11:21:35;;;;;;;4.63;1.80;;;;;;;;;;4990899;28;20056;-67
2022/07/01 11:24:00;;;;;;;6.63;3.10;;;;;;;;;;4990082;28;20471;-67
2022/07/01 11:26:25;;;;;;;4.03;2.10;;;;;;;;;;4992005;28;20281;-67
2022/07/01 11:28:51;;;;;;;4.07;1.98;;;;;;;;;;4993535;28;20261;-67
2022/07/01 11:31:25;;;;;;;8.02;2.30;;;;;;;;;;4992519;28;20117;-67
2022/07/01 11:33:51;;;;;;;6.35;1.92;;;;;;;;;;4991319;28;20026;-67
2022/07/01 11:41:44;;;;;;;1.73;1.15;;;;;;;;;;4990979;28;20024;-67
2022/07/01 11:44:09;;;;;;;4.57;1.83;;;;;;;;;;4992587;28;20154;-67
2022/07/01 11:46:34;;;;;;;11.50;2.08;;;;;;;;;;4993334;28;20261;-67
2022/07/01 11:48:59;;;;;;;4.00;1.77;;;;;;;;;;4992706;28;20527;-67
2022/07/01 11:51:29;;;;;;;6.88;1.88;;;;;;;;;;4991672;28;20072;-67
2022/07/01 11:53:54;;;;;;;;;;;;;;;;;;4987341;28;20022;-67
2022/07/01 11:56:34;;;;;;;11.07;2.15;;;;;;;;;;4992755;28;19910;-67
2022/07/01 11:59:01;;;;;;;4.25;1.80;;;;;;;;;;4982101;28;20015;-67
2022/07/01 12:01:30;;;;;;;16.90;2.13;;;;;;;;;;4991651;28;20022;-67
2022/07/01 12:03:57;;;;;;;3.08;1.33;;;;;;;;;;4992205;28;20483;-67
2022/07/01 12:06:23;;;;;;;5.30;1.50;;;;;;;;;;4992695;28;20080;-67
2022/07/01 12:08:49;;;;;;;5.10;1.60;;;;;;;;;;4989655;28;20018;-67
2022/07/01 12:11:15;;;;;;;5.00;1.48;;;;;;;;;;4992038;28;20023;-67
2022/07/01 12:13:40;;;;;;;7.18;1.48;;;;;;;;;;4990020;28;20368;-67
2022/07/01 12:16:09;;;;;;;2.83;1.38;;;;;;;;;;4992361;28;20053;-67
2022/07/01 12:18:34;;;;;;;3.90;1.25;;;;;;;;;;4990148;28;20025;-67
2022/07/01 12:21:00;;;;;;;5.22;0.93;;;;;;;;;;4991401;28;20014;-67
2022/07/01 12:23:25;;;;;;;4.10;1.20;;;;;;;;;;4989748;28;20058;-67
2022/07/01 12:25:51;;;;;;;6.40;1.33;;;;;;;;;;4992232;28;20074;-67
2022/07/01 12:28:29;;;;;;;6.75;0.90;;;;;;;;;;4991632;28;20101;-67
2022/07/01 12:31:00;;;;;;;3.03;0.82;;;;;;;;;;4988914;28;20021;-67
2022/07/01 12:33:26;;;;;;;2.40;1.15;;;;;;;;;;4989272;28;20522;-67
2022/07/01 12:35:51;;;;;;;9.30;1.10;;;;;;;;;;4988491;28;20112;-67
2022/07/01 12:38:16;;;;;;;2.57;0.90;;;;;;;;;;4989600;28;20033;-67
2022/07/01 12:40:41;;;;;;;7.47;0.88;;;;;;;;;;4990093;28;20422;-67
2022/07/01 12:43:21;;;;;;;5.33;0.93;;;;;;;;;;4991028;28;20029;-67
2022/07/01 12:45:46;;;;;;;4.93;1.02;;;;;;;;;;4993407;28;20092;-67
2022/07/01 12:48:12;;;;;;;9.03;1.27;;;;;;;;;;4989286;28;20505;-67
2022/07/01 12:50:37;;;;;;;3.87;1.10;;;;;;;;;;4992124;28;20029;-67
2022/07/01 12:53:08;;;;;;;6.60;0.77;;;;;;;;;;4989265;28;20030;-67
2022/07/01 12:55:33;;;;;;;3.05;0.80;;;;;;;;;;4991852;28;20161;-67
2022/07/01 12:57:59;;;;;;;6.23;1.40;;;;;;;;;;4991181;28;20097;-67
2022/07/01 13:00:27;;;;;;;5.13;1.02;;;;;;;;;;4989220;28;20038;-67
2022/07/01 13:02:52;;;;;;;4.63;1.35;;;;;;;;;;4990925;28;20037;-67
2022/07/01 13:05:17;;;;;;;4.00;1.23;;;;;;;;;;4990801;28;20035;-68
2022/07/01 13:07:43;;;;;;;2.40;0.68;;;;;;;;;;5094214;23;20048;-69
2022/07/01 13:10:08;;;;;;;2.08;0.82;;;;;;;;;;5029363;28;20061;-69
2022/07/01 13:12:33;;;;;;;4.63;0.93;;;;;;;;;;5029334;28;20473;-69
2022/07/01 13:14:58;;;;;;;3.70;0.70;;;;;;;;;;5035432;28;20033;-69
2022/07/01 13:17:24;;;;;;;2.25;0.60;;;;;;;;;;5026384;28;20025;-69
2022/07/01 13:19:49;;;;;;;1.30;0.63;;;;;;;;;;5030761;28;20013;-70
2022/07/01 13:22:14;;;;;;;4.55;0.80;;;;;;;;;;5029603;28;20026;-70
2022/07/01 13:24:40;;;;;;;7.00;0.80;;;;;;;;;;5028652;28;20025;-69
2022/07/01 13:27:05;;;;;;;4.55;1.00;;;;;;;;;;5028023;28;20330;-69
2022/07/01 13:29:30;;;;;;;5.10;0.68;;;;;;;;;;5027243;28;20462;-70
2022/07/01 13:31:55;;;;;;;6.30;0.80;;;;;;;;;;5023345;28;20393;-69
2022/07/01 13:34:21;;;;;;;4.43;0.87;;;;;;;;;;5021692;28;20389;-70
2022/07/01 13:36:46;;;;;;;4.17;0.80;;;;;;;;;;5022184;28;20276;-70
2022/07/01 13:39:11;;;;;;;6.73;0.60;;;;;;;;;;5027832;28;20279;-70
2022/07/01 13:41:37;;;;;;;5.78;0.73;;;;;;;;;;5025704;28;20264;-70
2022/07/01 13:44:02;;;;;;;4.47;1.08;;;;;;;;;;5023900;28;20017;-69
2022/07/01 13:46:27;;;;;;;1.85;0.40;;;;;;;;;;5029352;28;20092;-69
2022/07/01 13:48:52;;;;;;;5.20;0.80;;;;;;;;;;5026745;28;20013;-69
2022/07/01 13:51:18;;;;;;;5.43;1.77;;;;;;;;;;5029272;28;20020;-69
2022/07/01 13:53:43;;;;;;;3.63;0.67;;;;;;;;;;5025209;28;20284;-69
2022/07/01 13:56:08;;;;;;;7.45;0.80;;;;;;;;;;5028099;28;20119;-70
2022/07/01 13:58:33;;;;;;;0.95;0.50;;;;;;;;;;5027897;28;20021;-70
2022/07/01 14:00:58;;;;;;;3.00;0.70;;;;;;;;;;5025560;28;20025;-70
2022/07/01 14:03:24;;;;;;;4.82;0.70;;;;;;;;;;5028217;28;20287;-69
2022/07/01 14:05:49;;;;;;;3.73;0.67;;;;;;;;;;5024764;28;20128;-70
2022/07/01 14:08:14;;;;;;;2.13;0.57;;;;;;;;;;5026846;28;20386;-69
2022/07/01 14:10:42;;;;;;;1.73;0.60;;;;;;;;;;5025520;28;20290;-69
2022/07/01 14:13:07;;;;;;;4.82;0.75;;;;;;;;;;5026284;28;20271;-69
2022/07/01 14:15:35;;;;;;;2.90;0.53;;;;;;;;;;5027744;28;20014;-69
2022/07/01 14:18:00;;;;;;;6.43;0.60;;;;;;;;;;5028412;28;20260;-70
2022/07/01 14:20:26;;;;;;;3.13;0.60;;;;;;;;;;5031181;28;20021;-69
2022/07/01 14:22:53;;;;;;;3.38;0.70;;;;;;;;;;5029419;28;20014;-69
2022/07/01 14:25:18;;;;;;;1.25;0.40;;;;;;;;;;5029288;28;20477;-70
2022/07/01 14:27:45;;;;;;;5.18;0.70;;;;;;;;;;5028199;28;20064;-70
2022/07/01 14:30:10;;;;;;;8.25;0.70;;;;;;;;;;5026163;28;20021;-70
2022/07/01 14:32:35;;;;;;;2.70;0.73;;;;;;;;;;5026417;28;20036;-70
2022/07/01 14:35:02;;;;;;;4.30;0.68;;;;;;;;;;5025160;28;20389;-70
2022/07/01 14:37:27;;;;;;;4.50;0.43;;;;;;;;;;5024569;28;20377;-71
2022/07/01 14:39:55;;;;;;;6.80;0.98;;;;;;;;;;5028966;28;20030;-71
2022/07/01 14:42:21;;;;;;;2.38;0.45;;;;;;;;;;5028094;28;20032;-71
2022/07/01 14:44:46;;;;;;;2.60;0.55;;;;;;;;;;5026290;28;20409;-71
2022/07/01 14:47:11;;;;;;;6.93;0.60;;;;;;;;;;5030581;28;20033;-71